»·PEaware :: SWA3165 KOAK-KSLC

SWA3165 :: KOAK-KSLC

FLIGHT INFORMATION

Flight Status: Arrived
Operator:
Southwest Airlines
More flights by this operator :: More flights under this callsign
Pilot: Ben F. (2808)
Aircraft: BOEING 737-800
(B738)
More flights by this aircraft type
Origin: KOAK Metro Oakland Intl
United States
Destination: KSLC Salt Lake City Intl
United States
More flights between these airports :: More routes between these airports
Route: OAK4 OAK MOGEE Q124 BVL WAATS5
File this flight plan on PilotEdge
Remarks:
Altitude:
(Current/Filed)
37,000ft
Speed:
(Current/Filed)
449kts
Departed: 07-Dec-19 05:29 PM
Arrived: 07-Dec-19 06:52 PM
Distance/Time
Traveled:
510nm/1:23
Distance/Time
To Go:
Arrived

Flight Plot

Page will automatically refresh every two minutes.

Flight plan parsing failed; only flown route is shown


Map Options




Map Legend


Flown Route
Filed Route
Departure Airport
Arrival Airport
Navaid (VOR, NDB)
Fix

Horizontal Profiles

Position Reports

Time Latitude Longitude Heading Altitude Ground
Speed
07-Dec-19 17:07 37.709252 -122.213402 146 14ft 0kts
07-Dec-19 17:08 37.709252 -122.213402 146 14ft 0kts
07-Dec-19 17:09 37.709252 -122.213402 146 14ft 0kts
07-Dec-19 17:10 37.709252 -122.213402 146 14ft 0kts
07-Dec-19 17:11 37.709252 -122.213402 146 14ft 0kts
07-Dec-19 17:12 37.709252 -122.213402 146 14ft 0kts
07-Dec-19 17:13 37.709252 -122.213402 146 14ft 0kts
07-Dec-19 17:14 37.709252 -122.213402 146 14ft 0kts
07-Dec-19 17:15 37.709252 -122.213402 146 14ft 0kts
07-Dec-19 17:16 37.709252 -122.213402 146 14ft 0kts
07-Dec-19 17:17 37.709252 -122.213402 146 14ft 0kts
07-Dec-19 17:18 37.709760 -122.213802 157 14ft 2kts
07-Dec-19 17:19 37.710300 -122.213623 217 14ft 0kts
07-Dec-19 17:20 37.710299 -122.213623 217 14ft 0kts
07-Dec-19 17:21 37.710298 -122.213625 217 14ft 0kts
07-Dec-19 17:22 37.709464 -122.214429 217 14ft 9kts
07-Dec-19 17:23 37.709088 -122.214790 217 14ft 0kts
07-Dec-19 17:24 37.709087 -122.214791 217 14ft 0kts
07-Dec-19 17:25 37.706515 -122.217770 157 14ft 13kts
07-Dec-19 17:26 37.703195 -122.213793 160 14ft 13kts
07-Dec-19 17:27 37.702482 -122.213614 187 14ft 13kts
07-Dec-19 17:28 37.711016 -122.228536 310 21ft 157kts
07-Dec-19 17:29 37.748281 -122.278861 309 1917ft 203kts
07-Dec-19 17:30 37.789940 -122.329546 308 2475ft 236kts
07-Dec-19 17:31 37.857125 -122.346601 28 5564ft 304kts
07-Dec-19 17:32 37.909856 -122.259507 58 8884ft 323kts
07-Dec-19 17:33 37.959489 -122.159043 60 11470ft 362kts
07-Dec-19 17:34 38.017630 -122.040900 59 13329ft 415kts
07-Dec-19 17:35 38.080208 -121.913805 58 15969ft 433kts
07-Dec-19 17:36 38.145517 -121.781334 58 18340ft 451kts
07-Dec-19 17:37 38.213321 -121.643252 58 20471ft 469kts
07-Dec-19 17:38 38.283029 -121.499443 58 22409ft 485kts
07-Dec-19 17:39 38.356875 -121.353207 52 24165ft 498kts
07-Dec-19 17:40 38.445011 -121.212709 50 25612ft 515kts
07-Dec-19 17:41 38.534918 -121.067096 50 26928ft 529kts
07-Dec-19 17:42 38.627322 -120.917845 49 28167ft 541kts
07-Dec-19 17:43 38.721193 -120.764525 50 29203ft 554kts
07-Dec-19 17:44 38.804729 -120.597083 62 30415ft 562kts
07-Dec-19 17:45 38.876365 -120.418909 62 31672ft 564kts
07-Dec-19 17:46 38.948220 -120.239192 62 32871ft 565kts
07-Dec-19 17:47 39.023024 -120.061938 49 33989ft 562kts
07-Dec-19 17:48 39.124842 -119.911504 44 35190ft 557kts
07-Dec-19 17:49 39.227631 -119.762572 44 36414ft 552kts
07-Dec-19 17:50 39.329775 -119.614939 44 36939ft 553kts
07-Dec-19 17:51 39.431401 -119.466980 44 36939ft 549kts
07-Dec-19 17:52 39.532276 -119.319216 44 36937ft 549kts
07-Dec-19 17:53 39.633141 -119.170772 44 36934ft 549kts
07-Dec-19 17:54 39.734083 -119.022105 44 36933ft 548kts
07-Dec-19 17:55 39.834060 -118.873348 45 36931ft 546kts
07-Dec-19 17:56 39.921912 -118.711197 61 36931ft 551kts
07-Dec-19 17:57 39.991946 -118.532987 61 36930ft 550kts
07-Dec-19 17:58 40.063125 -118.357681 60 36930ft 546kts
07-Dec-19 17:59 40.134146 -118.181801 61 36932ft 547kts
07-Dec-19 18:00 40.202685 -118.003852 68 36934ft 549kts
07-Dec-19 18:01 40.247589 -117.813760 75 36936ft 547kts
07-Dec-19 18:02 40.291069 -117.622869 74 36944ft 545kts
07-Dec-19 18:03 40.335228 -117.433364 74 36947ft 544kts
07-Dec-19 18:04 40.378621 -117.243602 74 36949ft 543kts
07-Dec-19 18:05 40.421543 -117.053876 75 36951ft 541kts
07-Dec-19 18:06 40.463969 -116.864708 75 36950ft 540kts
07-Dec-19 18:07 40.506478 -116.675234 75 36960ft 540kts
07-Dec-19 18:08 40.528698 -116.573922 75 36969ft 540kts
07-Dec-19 18:09 40.538325 -116.529855 75 36974ft 540kts
07-Dec-19 18:10 40.572663 -116.338259 86 37008ft 535kts
07-Dec-19 18:11 40.586262 -116.143900 88 37060ft 535kts
07-Dec-19 18:12 40.600354 -115.948892 87 37107ft 536kts
07-Dec-19 18:13 40.615486 -115.753248 87 37142ft 537kts
07-Dec-19 18:14 40.629655 -115.557479 88 37150ft 537kts
07-Dec-19 18:16 40.643470 -115.360933 88 37144ft 538kts
07-Dec-19 18:17 40.656939 -115.164366 88 37135ft 539kts
07-Dec-19 18:18 40.670089 -114.967652 88 37126ft 541kts
07-Dec-19 18:19 40.683307 -114.770178 88 37124ft 542kts
07-Dec-19 18:20 40.695569 -114.572015 88 37117ft 543kts
07-Dec-19 18:21 40.704980 -114.373115 91 37051ft 544kts
07-Dec-19 18:22 40.711696 -114.173754 90 34424ft 547kts
07-Dec-19 18:23 40.719252 -113.973165 90 31716ft 541kts
07-Dec-19 18:24 40.720501 -113.934326 90 31286ft 537kts
07-Dec-19 18:25 40.725140 -113.787918 90 29684ft 520kts
07-Dec-19 18:26 40.726144 -113.603400 94 27496ft 492kts
07-Dec-19 18:27 40.725162 -113.425117 93 24890ft 477kts
07-Dec-19 18:28 40.724875 -113.253262 91 22286ft 460kts
07-Dec-19 18:29 40.724445 -113.090416 93 20311ft 431kts
07-Dec-19 18:30 40.723225 -112.935767 93 18306ft 413kts
07-Dec-19 18:31 40.722269 -112.787553 92 16439ft 397kts
07-Dec-19 18:32 40.720817 -112.644623 92 15240ft 382kts
07-Dec-19 18:33 40.719083 -112.505491 94 14083ft 376kts
07-Dec-19 18:33 40.715594 -112.391256 94 13145ft 371kts
07-Dec-19 18:35 40.711210 -112.235482 90 12019ft 350kts
07-Dec-19 18:36 40.741771 -112.126993 39 12005ft 311kts
07-Dec-19 18:36 40.803398 -112.095759 355 11983ft 272kts
07-Dec-19 18:37 40.875411 -112.106985 350 11347ft 265kts
07-Dec-19 18:39 40.965508 -112.117292 352 9647ft 285kts
07-Dec-19 18:39 41.016666 -112.074701 68 8556ft 275kts
07-Dec-19 18:40 41.041742 -111.982644 72 7489ft 251kts
07-Dec-19 18:41 41.039630 -111.908605 153 7405ft 204kts
07-Dec-19 18:43 40.985507 -111.952275 238 7412ft 221kts
07-Dec-19 18:43 40.974268 -112.019109 260 6377ft 224kts
07-Dec-19 18:44 40.970863 -112.098295 291 5924ft 209kts
07-Dec-19 18:45 41.022152 -112.107514 41 5975ft 212kts
07-Dec-19 18:46 41.009049 -112.045532 141 6028ft 206kts
07-Dec-19 18:47 40.963853 -111.999501 146 5990ft 196kts
07-Dec-19 18:48 40.912958 -111.989043 174 5992ft 185kts
07-Dec-19 18:49 40.862316 -111.983229 174 5329ft 173kts
07-Dec-19 18:50 40.816441 -111.977895 174 4430ft 158kts
07-Dec-19 18:51 40.787801 -111.974644 177 4235ft 21kts
07-Dec-19 18:52 40.787033 -111.976813 354 4235ft 12kts
07-Dec-19 18:53 40.788848 -111.977148 307 4235ft 0kts
07-Dec-19 18:54 40.788873 -111.977871 263 4235ft 0kts
07-Dec-19 18:55 40.788881 -111.977785 262 4235ft 0kts

Navigation Log

Ident Type
Flight plan parsing failed, navigation log unavailable